Time;durP1;ratioP1;P1;durP2;ratioP2;P2;SDS_P1;SDS_P2;PMS_P1;PMS_P2;Temp;Humidity;BMP_temperature;BMP_pressure;BME280_temperature;BME280_humidity;BME280_pressure;Samples;Min_cycle;Max_cycle;Signal;HPM_P1;HPM_P2
2022/06/22 00:00:24;;;;;;;3.20;2.10;;;;;;;;;;6200038;28;20320;-73
2022/06/22 00:03:48;;;;;;;6.13;2.97;;;;;;;;;;6200360;28;20218;-74
2022/06/22 00:07:13;;;;;;;4.38;2.15;;;;;;;;;;6201845;28;20248;-74
2022/06/22 00:10:40;;;;;;;3.38;3.08;;;;;;;;;;6202799;28;20525;-73
2022/06/22 00:14:02;;;;;;;4.78;3.35;;;;;;;;;;6173723;28;20262;-73
2022/06/22 00:17:25;;;;;;;4.45;2.90;;;;;;;;;;6198066;28;20643;-74
2022/06/22 00:20:49;;;;;;;4.55;3.35;;;;;;;;;;6196137;28;20245;-74
2022/06/22 00:24:25;;;;;;;5.60;3.58;;;;;;;;;;6202475;28;20241;-75
2022/06/22 00:27:47;;;;;;;3.60;3.30;;;;;;;;;;6203024;28;20233;-74
2022/06/22 00:31:14;;;;;;;3.70;3.28;;;;;;;;;;6202086;28;20233;-74
2022/06/22 00:34:35;;;;;;;4.80;3.60;;;;;;;;;;6202906;28;20229;-74
2022/06/22 00:37:55;;;;;;;4.07;3.25;;;;;;;;;;6204150;28;20300;-73
2022/06/22 00:41:17;;;;;;;6.78;4.10;;;;;;;;;;6199406;28;20234;-73
2022/06/22 00:44:42;;;;;;;6.03;3.35;;;;;;;;;;6205515;28;20319;-73
2022/06/22 00:48:06;;;;;;;6.75;3.30;;;;;;;;;;6202958;28;20378;-73
2022/06/22 00:51:31;;;;;;;4.78;3.10;;;;;;;;;;6202320;28;20679;-74
2022/06/22 00:54:52;;;;;;;3.33;3.03;;;;;;;;;;6178112;28;20234;-75
2022/06/22 00:58:16;;;;;;;5.10;3.30;;;;;;;;;;6196401;28;20237;-73
2022/06/22 01:01:42;;;;;;;3.50;3.20;;;;;;;;;;6200263;28;20643;-73
2022/06/22 01:05:08;;;;;;;4.47;4.05;;;;;;;;;;6200805;28;20308;-73
2022/06/22 01:08:30;;;;;;;5.18;3.88;;;;;;;;;;6193397;28;20646;-73
2022/06/22 01:15:35;;;;;;;4.53;4.05;;;;;;;;;;6200329;28;20241;-74
2022/06/22 01:18:58;;;;;;;8.25;3.97;;;;;;;;;;6176841;28;20261;-73
2022/06/22 01:22:26;;;;;;;5.88;4.10;;;;;;;;;;6196207;28;20224;-73
2022/06/22 01:25:54;;;;;;;5.97;4.60;;;;;;;;;;6199959;28;20256;-73
2022/06/22 01:29:17;;;;;;;8.47;4.80;;;;;;;;;;6202240;28;20225;-74
2022/06/22 01:32:38;;;;;;;4.63;4.23;;;;;;;;;;6197079;28;20308;-75
2022/06/22 01:36:01;;;;;;;5.27;4.03;;;;;;;;;;6174730;28;20233;-74
2022/06/22 01:39:22;;;;;;;5.05;3.50;;;;;;;;;;6198457;28;20320;-74
2022/06/22 01:42:46;;;;;;;6.22;4.35;;;;;;;;;;6200026;28;20225;-72
2022/06/22 01:46:13;;;;;;;4.38;3.83;;;;;;;;;;6199384;28;20631;-74
2022/06/22 01:49:34;;;;;;;4.63;3.70;;;;;;;;;;6197197;28;20229;-73
2022/06/22 01:53:02;;;;;;;4.93;4.47;;;;;;;;;;6172867;28;20668;-74
2022/06/22 01:56:26;;;;;;;5.80;4.37;;;;;;;;;;6202504;28;20232;-73
2022/06/22 01:59:50;;;;;;;5.13;4.73;;;;;;;;;;6201167;28;20228;-74
2022/06/22 02:03:14;;;;;;;6.43;5.03;;;;;;;;;;6201884;28;20327;-72
2022/06/22 02:10:20;;;;;;;4.93;4.17;;;;;;;;;;6204762;28;20321;-74
2022/06/22 02:13:42;;;;;;;5.60;5.07;;;;;;;;;;6166457;28;20232;-73
2022/06/22 02:17:03;;;;;;;6.97;5.17;;;;;;;;;;6203338;28;20236;-73
2022/06/22 02:20:28;;;;;;;7.97;5.43;;;;;;;;;;6198114;28;20229;-75
2022/06/22 02:23:51;;;;;;;8.73;4.90;;;;;;;;;;6200092;28;20224;-74
2022/06/22 02:27:13;;;;;;;5.97;4.70;;;;;;;;;;6198353;28;20230;-74
2022/06/22 02:30:33;;;;;;;5.77;5.27;;;;;;;;;;6199904;28;20254;-74
2022/06/22 02:33:56;;;;;;;6.33;5.27;;;;;;;;;;6181973;28;20233;-74
2022/06/22 02:37:19;;;;;;;15.10;6.53;;;;;;;;;;6202824;28;20577;-73
2022/06/22 02:44:30;;;;;;;5.43;4.93;;;;;;;;;;6201838;28;20237;-74
2022/06/22 02:47:57;;;;;;;7.90;5.73;;;;;;;;;;6204128;28;20255;-74
2022/06/22 02:51:21;;;;;;;8.07;6.03;;;;;;;;;;6197926;28;20408;-74
2022/06/22 02:54:46;;;;;;;7.77;4.80;;;;;;;;;;6199238;28;20664;-73
2022/06/22 02:58:22;;;;;;;8.00;5.63;;;;;;;;;;6198822;28;20588;-73
2022/06/22 03:01:42;;;;;;;6.60;5.90;;;;;;;;;;6173786;28;20246;-74
2022/06/22 03:05:05;;;;;;;16.00;5.93;;;;;;;;;;6200965;28;20233;-73
2022/06/22 03:08:26;;;;;;;10.33;7.77;;;;;;;;;;6197451;28;20275;-73
2022/06/22 03:11:49;;;;;;;30.47;27.70;;;;;;;;;;6201971;28;20592;-73
2022/06/22 03:15:14;;;;;;;8.90;7.90;;;;;;;;;;6202117;28;20229;-73
2022/06/22 03:18:38;;;;;;;7.80;6.97;;;;;;;;;;6178062;28;20237;-73
2022/06/22 03:21:59;;;;;;;8.20;7.50;;;;;;;;;;6199291;28;20232;-73
2022/06/22 03:25:23;;;;;;;10.30;6.80;;;;;;;;;;6197668;28;20229;-73
2022/06/22 03:28:48;;;;;;;7.07;6.50;;;;;;;;;;6205024;28;20229;-72
2022/06/22 03:32:11;;;;;;;7.17;6.07;;;;;;;;;;6202049;28;20236;-72
2022/06/22 03:35:34;;;;;;;8.20;6.72;;;;;;;;;;6180795;28;20654;-73
2022/06/22 03:38:57;;;;;;;7.50;6.73;;;;;;;;;;6200832;28;20241;-73
2022/06/22 03:42:21;;;;;;;8.17;7.37;;;;;;;;;;6201086;28;20229;-73
2022/06/22 03:45:46;;;;;;;7.13;6.53;;;;;;;;;;6201959;28;20225;-74
2022/06/22 03:49:08;;;;;;;6.23;5.73;;;;;;;;;;6202746;28;20256;-72
2022/06/22 03:52:32;;;;;;;7.93;7.20;;;;;;;;;;6174030;28;20228;-73
2022/06/22 03:55:55;;;;;;;7.80;7.00;;;;;;;;;;6197957;28;20675;-73
2022/06/22 03:59:15;;;;;;;9.70;6.80;;;;;;;;;;6195643;28;20674;-73
2022/06/22 04:02:38;;;;;;;6.83;6.23;;;;;;;;;;6177818;28;20236;-73
2022/06/22 04:05:59;;;;;;;6.60;5.90;;;;;;;;;;6200855;28;20229;-73
2022/06/22 04:09:21;;;;;;;7.97;6.53;;;;;;;;;;6198286;28;20236;-73
2022/06/22 04:12:43;;;;;;;6.30;5.60;;;;;;;;;;6200811;28;20233;-74
2022/06/22 04:16:08;;;;;;;7.33;6.60;;;;;;;;;;6173789;28;20237;-73
2022/06/22 04:19:32;;;;;;;7.47;6.30;;;;;;;;;;6199257;28;20252;-74
2022/06/22 04:22:54;;;;;;;9.20;7.23;;;;;;;;;;6172795;28;20233;-74
2022/06/22 04:26:17;;;;;;;7.77;6.67;;;;;;;;;;6202159;28;20225;-73
2022/06/22 04:29:40;;;;;;;7.50;6.43;;;;;;;;;;6203543;28;20233;-73
2022/06/22 04:33:03;;;;;;;6.17;5.60;;;;;;;;;;6178998;28;20611;-72
2022/06/22 04:36:27;;;;;;;8.97;7.80;;;;;;;;;;6181050;28;20220;-73
2022/06/22 04:39:50;;;;;;;7.63;6.70;;;;;;;;;;6203290;28;20225;-74
2022/06/22 04:43:11;;;;;;;8.37;7.43;;;;;;;;;;6205100;28;20229;-75
2022/06/22 04:46:33;;;;;;;8.83;6.73;;;;;;;;;;6185444;28;20498;-73
2022/06/22 04:49:55;;;;;;;6.27;5.67;;;;;;;;;;6208368;28;20229;-73
2022/06/22 04:53:19;;;;;;;6.20;5.70;;;;;;;;;;6198992;28;20229;-73
2022/06/22 04:56:41;;;;;;;7.10;6.00;;;;;;;;;;6183636;28;20248;-74
2022/06/22 05:00:03;;;;;;;10.57;6.47;;;;;;;;;;6204878;28;20252;-73
2022/06/22 05:03:24;;;;;;;7.17;6.33;;;;;;;;;;6204749;28;20225;-74
2022/06/22 05:06:48;;;;;;;8.52;5.60;;;;;;;;;;6181549;28;20237;-73
2022/06/22 05:10:15;;;;;;;7.97;6.50;;;;;;;;;;6198047;28;20237;-71
2022/06/22 05:13:39;;;;;;;6.40;5.63;;;;;;;;;;6163443;28;20229;-75
2022/06/22 05:17:01;;;;;;;6.13;5.20;;;;;;;;;;6201114;28;20222;-75
2022/06/22 05:20:25;;;;;;;4.95;4.18;;;;;;;;;;6177511;28;20228;-74
2022/06/22 05:23:47;;;;;;;5.65;4.38;;;;;;;;;;6200558;28;20246;-75
2022/06/22 05:27:11;;;;;;;8.23;5.87;;;;;;;;;;6171468;28;20236;-75
2022/06/22 05:30:34;;;;;;;5.23;4.50;;;;;;;;;;6172907;28;20240;-74
2022/06/22 05:33:58;;;;;;;6.13;4.70;;;;;;;;;;6196841;28;20230;-73
2022/06/22 05:37:21;;;;;;;6.95;4.45;;;;;;;;;;6196682;28;20510;-74
2022/06/22 05:40:43;;;;;;;5.97;3.53;;;;;;;;;;6173422;28;20229;-73
2022/06/22 05:44:07;;;;;;;5.73;3.80;;;;;;;;;;6198747;28;20237;-74
2022/06/22 05:47:29;;;;;;;4.83;3.67;;;;;;;;;;6196371;28;20233;-73
2022/06/22 05:50:53;;;;;;;8.87;4.23;;;;;;;;;;6169392;28;20317;-74
2022/06/22 05:54:17;;;;;;;5.77;4.80;;;;;;;;;;6178433;28;20643;-74
2022/06/22 05:57:42;;;;;;;6.30;4.03;;;;;;;;;;6203321;28;20249;-74
2022/06/22 06:01:10;;;;;;;4.97;4.03;;;;;;;;;;6203447;28;20643;-74
2022/06/22 06:04:34;;;;;;;8.30;4.70;;;;;;;;;;6177689;28;20228;-74
2022/06/22 06:07:56;;;;;;;6.15;3.83;;;;;;;;;;6177447;28;20237;-73
2022/06/22 06:11:18;;;;;;;5.40;4.60;;;;;;;;;;6210039;28;20240;-75
2022/06/22 06:14:41;;;;;;;5.68;3.60;;;;;;;;;;6180769;28;20220;-73
2022/06/22 06:18:04;;;;;;;9.88;4.03;;;;;;;;;;6201496;28;20229;-74
2022/06/22 06:21:25;;;;;;;6.28;3.67;;;;;;;;;;6201693;28;20315;-74
2022/06/22 06:28:24;;;;;;;9.00;3.97;;;;;;;;;;6180949;28;20239;-74
2022/06/22 06:31:51;;;;;;;6.38;4.38;;;;;;;;;;6205906;28;20328;-74
2022/06/22 06:35:17;;;;;;;5.07;4.28;;;;;;;;;;6183156;28;20237;-73
2022/06/22 06:38:39;;;;;;;10.35;3.97;;;;;;;;;;6202085;28;20221;-74
2022/06/22 06:42:05;;;;;;;5.55;3.45;;;;;;;;;;6178787;28;20229;-74
2022/06/22 06:45:28;;;;;;;9.43;4.97;;;;;;;;;;6201319;28;20240;-74
2022/06/22 06:48:51;;;;;;;9.85;4.53;;;;;;;;;;6182321;28;20243;-74
2022/06/22 06:52:15;;;;;;;6.85;4.13;;;;;;;;;;6203628;28;20232;-74
2022/06/22 06:55:38;;;;;;;5.63;3.58;;;;;;;;;;6180019;28;20229;-75
2022/06/22 06:59:01;;;;;;;4.88;3.50;;;;;;;;;;6200659;28;20533;-74
2022/06/22 07:02:25;;;;;;;6.43;4.45;;;;;;;;;;6178091;28;22119;-74
2022/06/22 07:05:46;;;;;;;6.90;4.22;;;;;;;;;;6182131;28;20228;-75
2022/06/22 07:09:12;;;;;;;7.88;4.90;;;;;;;;;;6197752;28;20293;-74
2022/06/22 07:12:36;;;;;;;6.03;4.30;;;;;;;;;;6201420;28;20241;-74
2022/06/22 07:15:58;;;;;;;11.07;5.03;;;;;;;;;;6177137;28;20249;-74
2022/06/22 07:19:21;;;;;;;7.03;4.75;;;;;;;;;;6201434;28;20225;-74
2022/06/22 07:22:43;;;;;;;6.05;4.75;;;;;;;;;;6178905;28;20233;-73
2022/06/22 07:26:09;;;;;;;7.05;4.88;;;;;;;;;;6179606;28;20293;-74
2022/06/22 07:29:34;;;;;;;8.77;4.85;;;;;;;;;;6199115;28;20234;-73
2022/06/22 07:32:58;;;;;;;4.43;4.00;;;;;;;;;;6205090;28;20221;-73
2022/06/22 07:36:21;;;;;;;5.93;4.20;;;;;;;;;;6179896;28;20623;-74
2022/06/22 07:39:43;;;;;;;8.85;4.78;;;;;;;;;;6200517;28;20236;-73
2022/06/22 07:43:05;;;;;;;7.35;4.18;;;;;;;;;;6177773;28;20241;-74
2022/06/22 07:46:29;;;;;;;6.53;4.78;;;;;;;;;;6200995;28;20229;-74
2022/06/22 07:49:54;;;;;;;4.30;3.78;;;;;;;;;;6202935;28;20224;-74
2022/06/22 07:53:17;;;;;;;5.88;4.22;;;;;;;;;;6177361;28;20233;-68
2022/06/22 07:56:42;;;;;;;5.38;3.03;;;;;;;;;;6171590;28;20229;-69
2022/06/22 08:00:06;;;;;;;9.25;4.45;;;;;;;;;;6199566;28;20229;-69
2022/06/22 08:03:34;;;;;;;5.85;4.40;;;;;;;;;;6173485;28;20236;-70
2022/06/22 08:06:57;;;;;;;6.85;4.22;;;;;;;;;;6200994;28;20226;-71
2022/06/22 08:10:19;;;;;;;6.88;3.80;;;;;;;;;;6185361;28;20314;-70
2022/06/22 08:13:42;;;;;;;5.47;3.70;;;;;;;;;;6209743;28;21095;-70
2022/06/22 08:17:06;;;;;;;4.88;4.40;;;;;;;;;;6212633;28;20221;-70
2022/06/22 08:20:28;;;;;;;6.20;4.45;;;;;;;;;;6187843;28;20503;-70
2022/06/22 08:23:50;;;;;;;6.80;5.35;;;;;;;;;;6210290;28;20225;-69
2022/06/22 08:27:14;;;;;;;7.47;4.38;;;;;;;;;;6184567;28;20233;-69
2022/06/22 08:30:35;;;;;;;7.40;5.18;;;;;;;;;;6217087;28;22162;-70
2022/06/22 08:33:58;;;;;;;8.35;4.88;;;;;;;;;;6188173;28;20570;-72
2022/06/22 08:37:21;;;;;;;6.88;4.07;;;;;;;;;;6200934;28;20315;-72
2022/06/22 08:40:44;;;;;;;5.13;4.22;;;;;;;;;;6180072;28;20275;-71
2022/06/22 08:44:11;;;;;;;4.65;4.05;;;;;;;;;;6207492;28;20503;-71
2022/06/22 08:47:51;;;;;;;7.00;5.40;;;;;;;;;;6183591;28;20796;-72
2022/06/22 08:51:19;;;;;;;6.28;4.75;;;;;;;;;;6219854;28;20225;-72
2022/06/22 08:54:49;;;;;;;6.95;5.18;;;;;;;;;;6220880;28;20933;-71
2022/06/22 08:58:21;;;;;;;9.18;4.38;;;;;;;;;;6191193;28;20240;-71
2022/06/22 09:01:47;;;;;;;5.38;4.78;;;;;;;;;;6208019;28;20244;-72
2022/06/22 09:05:18;;;;;;;6.15;4.60;;;;;;;;;;6183938;28;20267;-72
2022/06/22 09:08:50;;;;;;;4.72;3.72;;;;;;;;;;6208841;28;20233;-72
2022/06/22 09:12:15;;;;;;;7.50;3.70;;;;;;;;;;6186624;28;20500;-72
2022/06/22 09:15:40;;;;;;;8.80;4.88;;;;;;;;;;6205186;28;20233;-71
2022/06/22 09:19:11;;;;;;;11.98;5.55;;;;;;;;;;6179032;28;20248;-71
2022/06/22 09:22:38;;;;;;;7.22;5.68;;;;;;;;;;6201577;28;20654;-72
2022/06/22 09:26:07;;;;;;;8.35;5.68;;;;;;;;;;6200403;28;20677;-72
2022/06/22 09:29:36;;;;;;;6.55;5.93;;;;;;;;;;6171622;28;20656;-72
2022/06/22 09:33:04;;;;;;;5.18;4.57;;;;;;;;;;6175953;28;20224;-71
2022/06/22 09:36:37;;;;;;;8.18;5.60;;;;;;;;;;6181650;28;20228;-72
2022/06/22 09:40:13;;;;;;;5.03;4.38;;;;;;;;;;6199940;28;20225;-73
2022/06/22 09:44:03;;;;;;;6.03;4.65;;;;;;;;;;6182167;28;20241;-78
2022/06/22 09:47:31;;;;;;;6.07;4.45;;;;;;;;;;6147443;28;20243;-73
2022/06/22 09:50:58;;;;;;;5.95;4.60;;;;;;;;;;6208857;28;20233;-73
2022/06/22 09:58:24;;;;;;;6.97;5.03;;;;;;;;;;6190736;28;20228;-73
2022/06/22 10:01:51;;;;;;;6.35;5.25;;;;;;;;;;6194962;28;20229;-73
2022/06/22 10:05:41;;;;;;;7.80;5.35;;;;;;;;;;6213030;28;20319;-72
2022/06/22 10:09:09;;;;;;;11.32;7.47;;;;;;;;;;6202517;28;20225;-72
2022/06/22 10:12:43;;;;;;;7.60;5.05;;;;;;;;;;6205088;28;20224;-72
2022/06/22 10:16:10;;;;;;;8.13;5.15;;;;;;;;;;6206009;28;20252;-73
2022/06/22 10:19:38;;;;;;;7.22;5.72;;;;;;;;;;6201503;28;20233;-73
2022/06/22 10:23:08;;;;;;;7.15;5.88;;;;;;;;;;6202862;28;20268;-73
2022/06/22 10:26:35;;;;;;;6.47;5.85;;;;;;;;;;6208514;28;20229;-72
2022/06/22 10:30:04;;;;;;;7.43;4.90;;;;;;;;;;6200031;28;20226;-72
2022/06/22 10:33:46;;;;;;;9.27;5.18;;;;;;;;;;6204892;28;20232;-72
2022/06/22 10:37:17;;;;;;;6.10;5.40;;;;;;;;;;6203422;28;21115;-72
2022/06/22 10:48:39;;;;;;;3.50;3.20;;;;;;;;;;6200463;28;20233;-73
2022/06/22 10:52:11;;;;;;;5.72;4.28;;;;;;;;;;6205058;28;20233;-72
2022/06/22 10:55:39;;;;;;;8.88;3.78;;;;;;;;;;6207311;28;20229;-72
2022/06/22 10:59:18;;;;;;;6.32;3.58;;;;;;;;;;6203527;28;20613;-72
2022/06/22 11:02:52;;;;;;;8.55;3.95;;;;;;;;;;6202205;28;20646;-72
2022/06/22 11:06:38;;;;;;;4.65;3.88;;;;;;;;;;6208371;28;20232;-72
2022/06/22 11:10:11;;;;;;;4.80;3.13;;;;;;;;;;6197933;28;20236;-72
2022/06/22 11:13:42;;;;;;;5.82;3.20;;;;;;;;;;6201777;28;20240;-72
2022/06/22 11:17:11;;;;;;;6.18;3.47;;;;;;;;;;6202697;28;20260;-77
2022/06/22 11:20:37;;;;;;;3.58;2.97;;;;;;;;;;6200529;28;20237;-77
2022/06/22 11:24:08;;;;;;;5.50;3.28;;;;;;;;;;6196804;28;20229;-69
2022/06/22 11:31:16;;;;;;;4.65;2.80;;;;;;;;;;6206443;28;20229;-72
2022/06/22 11:34:45;;;;;;;5.50;2.88;;;;;;;;;;6205337;28;20237;-70
2022/06/22 11:38:16;;;;;;;5.50;3.83;;;;;;;;;;6202821;28;20567;-69
2022/06/22 11:41:51;;;;;;;3.88;3.17;;;;;;;;;;6205570;28;20327;-70
2022/06/22 11:49:05;;;;;;;2.67;2.20;;;;;;;;;;6207399;28;20251;-69
2022/06/22 11:52:42;;;;;;;3.60;2.78;;;;;;;;;;6208493;28;20248;-70
2022/06/22 11:56:09;;;;;;;4.47;2.83;;;;;;;;;;6208664;28;20323;-70
2022/06/22 11:59:54;;;;;;;8.00;4.30;;;;;;;;;;6212713;28;20874;-69
2022/06/22 12:03:30;;;;;;;3.72;2.83;;;;;;;;;;6196747;28;20233;-70
2022/06/22 12:06:59;;;;;;;3.60;3.20;;;;;;;;;;6209857;28;20244;-70
2022/06/22 12:10:34;;;;;;;4.22;2.90;;;;;;;;;;6211708;28;20281;-70
2022/06/22 12:17:55;;;;;;;4.47;2.58;;;;;;;;;;6197915;28;20225;-70
2022/06/22 12:21:26;;;;;;;3.35;2.55;;;;;;;;;;6208903;28;20228;-70
2022/06/22 12:24:56;;;;;;;6.72;3.72;;;;;;;;;;6210970;28;20236;-69
2022/06/22 12:28:27;;;;;;;4.30;2.97;;;;;;;;;;6209403;28;20228;-70
2022/06/22 12:31:51;;;;;;;3.72;2.40;;;;;;;;;;6209862;28;20706;-70
2022/06/22 12:35:16;;;;;;;3.88;2.63;;;;;;;;;;6211121;28;20237;-71
2022/06/22 12:38:39;;;;;;;6.13;2.97;;;;;;;;;;6208868;28;20236;-70
2022/06/22 12:42:08;;;;;;;5.20;3.10;;;;;;;;;;6209747;28;20614;-70
2022/06/22 12:45:41;;;;;;;3.72;2.00;;;;;;;;;;6207391;28;20236;-70
2022/06/22 12:49:21;;;;;;;5.55;2.72;;;;;;;;;;6200548;28;20316;-69
2022/06/22 12:52:43;;;;;;;3.55;2.50;;;;;;;;;;6207391;28;20713;-71
2022/06/22 12:56:07;;;;;;;3.33;2.60;;;;;;;;;;6207913;28;20225;-71
2022/06/22 12:59:31;;;;;;;3.72;2.85;;;;;;;;;;6208095;28;20517;-71
2022/06/22 13:02:56;;;;;;;5.30;2.92;;;;;;;;;;6207569;28;20320;-70
2022/06/22 13:06:17;;;;;;;3.83;1.73;;;;;;;;;;6207515;28;20229;-71
2022/06/22 13:09:38;;;;;;;3.45;2.00;;;;;;;;;;6203538;28;20245;-71
2022/06/22 13:13:01;;;;;;;2.40;2.03;;;;;;;;;;6207534;28;20229;-70
2022/06/22 13:16:24;;;;;;;4.68;2.35;;;;;;;;;;6208518;28;20591;-70
2022/06/22 13:19:54;;;;;;;3.90;2.70;;;;;;;;;;6198598;28;20237;-71
2022/06/22 13:23:23;;;;;;;2.13;2.03;;;;;;;;;;6206663;28;20221;-71
2022/06/22 13:26:48;;;;;;;3.30;2.30;;;;;;;;;;6209221;28;20229;-71
2022/06/22 13:30:15;;;;;;;2.30;2.10;;;;;;;;;;6205888;28;20233;-72
2022/06/22 13:33:38;;;;;;;2.78;1.80;;;;;;;;;;6206814;28;20337;-70
2022/06/22 13:37:06;;;;;;;1.75;1.65;;;;;;;;;;6206053;28;21322;-70
2022/06/22 13:40:30;;;;;;;2.35;1.75;;;;;;;;;;6203900;28;20228;-71
2022/06/22 13:43:58;;;;;;;2.90;2.05;;;;;;;;;;6205916;28;20308;-71
2022/06/22 13:47:30;;;;;;;4.30;3.30;;;;;;;;;;6208225;28;20887;-70
2022/06/22 13:51:08;;;;;;;4.97;2.42;;;;;;;;;;6208202;28;20237;-73
2022/06/22 13:54:44;;;;;;;5.38;2.28;;;;;;;;;;6204234;28;20248;-72
2022/06/22 13:58:09;;;;;;;3.47;2.40;;;;;;;;;;6205509;28;20579;-71
2022/06/22 14:01:33;;;;;;;3.55;1.52;;;;;;;;;;6205794;28;20225;-69
2022/06/22 14:04:56;;;;;;;3.15;1.80;;;;;;;;;;6201060;28;20229;-69
2022/06/22 14:08:32;;;;;;;4.95;1.85;;;;;;;;;;6197750;28;20233;-69
2022/06/22 14:11:55;;;;;;;2.65;1.98;;;;;;;;;;6204264;28;20225;-69
2022/06/22 14:15:20;;;;;;;4.22;2.05;;;;;;;;;;6206934;28;20230;-68
2022/06/22 14:18:47;;;;;;;2.20;1.90;;;;;;;;;;6201489;28;20252;-68
2022/06/22 14:22:18;;;;;;;2.63;1.73;;;;;;;;;;6205570;28;20240;-67
2022/06/22 14:25:43;;;;;;;3.65;1.95;;;;;;;;;;6201978;28;20229;-69
2022/06/22 14:29:08;;;;;;;2.83;1.95;;;;;;;;;;6205599;28;20229;-69
2022/06/22 14:32:34;;;;;;;5.20;2.30;;;;;;;;;;6206662;28;20240;-69
2022/06/22 14:36:03;;;;;;;4.63;2.72;;;;;;;;;;6204520;28;20847;-69
2022/06/22 14:39:29;;;;;;;3.05;2.30;;;;;;;;;;6200865;28;20232;-69
2022/06/22 14:42:52;;;;;;;3.97;2.03;;;;;;;;;;6199964;28;20241;-69
2022/06/22 14:46:15;;;;;;;3.80;2.33;;;;;;;;;;6206297;28;20316;-68
2022/06/22 14:49:40;;;;;;;3.35;2.40;;;;;;;;;;6203118;28;20237;-69
2022/06/22 14:53:07;;;;;;;3.15;2.10;;;;;;;;;;6202800;28;20229;-69
2022/06/22 14:56:30;;;;;;;3.42;2.85;;;;;;;;;;6203015;28;20979;-68
2022/06/22 14:59:56;;;;;;;2.78;1.95;;;;;;;;;;6205293;28;20221;-68
2022/06/22 15:03:24;;;;;;;2.88;1.60;;;;;;;;;;6202114;28;20233;-69
2022/06/22 15:06:56;;;;;;;3.22;1.85;;;;;;;;;;6197581;28;20220;-69
2022/06/22 15:10:21;;;;;;;2.97;2.42;;;;;;;;;;6211491;28;20232;-69
2022/06/22 15:13:46;;;;;;;4.20;2.38;;;;;;;;;;6205597;28;20229;-68
2022/06/22 15:17:12;;;;;;;4.35;2.15;;;;;;;;;;6205457;28;22503;-68
2022/06/22 15:20:38;;;;;;;3.00;1.73;;;;;;;;;;6207651;28;20694;-68
2022/06/22 15:24:09;;;;;;;3.88;1.88;;;;;;;;;;6208520;28;20410;-69
2022/06/22 15:27:32;;;;;;;4.35;2.03;;;;;;;;;;6211953;28;20225;-69
2022/06/22 15:30:54;;;;;;;2.33;2.08;;;;;;;;;;6201081;28;20229;-69
2022/06/22 15:34:28;;;;;;;3.33;1.83;;;;;;;;;;6216486;28;20237;-68
2022/06/22 15:37:55;;;;;;;2.42;1.90;;;;;;;;;;6205496;28;20236;-69
2022/06/22 15:41:27;;;;;;;2.35;2.15;;;;;;;;;;6195568;28;20257;-69
2022/06/22 15:44:51;;;;;;;2.38;1.90;;;;;;;;;;6203021;28;20698;-69
2022/06/22 15:48:16;;;;;;;7.72;3.08;;;;;;;;;;6196154;28;20553;-69
2022/06/22 15:51:50;;;;;;;4.75;2.35;;;;;;;;;;6196969;28;20253;-69
2022/06/22 15:55:16;;;;;;;3.47;2.35;;;;;;;;;;6201056;28;20237;-69
2022/06/22 15:58:39;;;;;;;6.30;3.22;;;;;;;;;;6213118;28;20228;-69
2022/06/22 16:02:02;;;;;;;2.47;2.17;;;;;;;;;;6202301;28;20236;-68
2022/06/22 16:05:29;;;;;;;3.13;2.53;;;;;;;;;;6204228;28;20432;-68
2022/06/22 16:08:55;;;;;;;4.53;3.08;;;;;;;;;;6202097;28;20225;-68
2022/06/22 16:16:06;;;;;;;5.38;2.50;;;;;;;;;;6203693;28;20308;-69
2022/06/22 16:19:31;;;;;;;5.72;2.70;;;;;;;;;;6197925;28;20233;-69
2022/06/22 16:23:01;;;;;;;3.80;2.20;;;;;;;;;;6200551;28;20229;-69
2022/06/22 16:26:24;;;;;;;2.17;1.98;;;;;;;;;;6202475;28;20224;-69
2022/06/22 16:29:49;;;;;;;4.95;2.55;;;;;;;;;;6184221;28;20225;-69
2022/06/22 16:33:12;;;;;;;3.88;2.10;;;;;;;;;;6201382;28;20237;-69
2022/06/22 16:36:36;;;;;;;3.38;1.88;;;;;;;;;;6206880;28;20257;-69
2022/06/22 16:40:01;;;;;;;3.53;2.45;;;;;;;;;;6195564;28;20239;-68
2022/06/22 16:43:26;;;;;;;3.83;1.73;;;;;;;;;;6213738;28;20611;-69
2022/06/22 16:46:49;;;;;;;5.13;2.80;;;;;;;;;;6207078;28;20233;-68
2022/06/22 16:50:15;;;;;;;6.28;2.58;;;;;;;;;;6207419;28;20636;-69
2022/06/22 16:53:37;;;;;;;5.70;2.30;;;;;;;;;;6208354;28;20237;-69
2022/06/22 16:56:59;;;;;;;3.55;2.03;;;;;;;;;;6199504;28;20248;-68
2022/06/22 17:00:21;;;;;;;3.95;2.58;;;;;;;;;;6204294;28;20234;-70
2022/06/22 17:03:45;;;;;;;2.55;1.92;;;;;;;;;;6193686;28;20233;-69
2022/06/22 17:07:15;;;;;;;4.22;2.33;;;;;;;;;;6201366;28;20244;-68
2022/06/22 17:10:41;;;;;;;2.88;1.80;;;;;;;;;;6204235;28;20252;-70
2022/06/22 17:14:04;;;;;;;5.30;2.95;;;;;;;;;;6201022;28;20228;-69
2022/06/22 17:17:27;;;;;;;4.18;3.38;;;;;;;;;;6204894;28;20229;-69
2022/06/22 17:20:51;;;;;;;2.60;2.40;;;;;;;;;;6208021;28;20939;-69
2022/06/22 17:24:20;;;;;;;5.18;2.20;;;;;;;;;;6201527;28;20693;-69
2022/06/22 17:27:45;;;;;;;3.33;2.47;;;;;;;;;;6204723;28;20612;-69
2022/06/22 17:31:09;;;;;;;2.45;1.90;;;;;;;;;;6200171;28;20237;-69
2022/06/22 17:34:35;;;;;;;3.13;1.73;;;;;;;;;;6196404;28;20229;-68
2022/06/22 17:38:01;;;;;;;2.70;2.50;;;;;;;;;;6197594;28;20218;-68
2022/06/22 17:41:31;;;;;;;3.75;2.67;;;;;;;;;;6194969;28;20229;-69
2022/06/22 17:44:58;;;;;;;3.30;3.00;;;;;;;;;;6192286;28;20228;-70
2022/06/22 17:48:21;;;;;;;3.53;2.58;;;;;;;;;;6193116;28;20225;-70
2022/06/22 17:51:44;;;;;;;3.38;2.33;;;;;;;;;;6195172;28;20229;-69
2022/06/22 17:55:07;;;;;;;2.30;2.10;;;;;;;;;;6191715;28;20241;-69
2022/06/22 17:58:34;;;;;;;2.85;1.98;;;;;;;;;;6188664;28;20237;-68
2022/06/22 18:01:56;;;;;;;3.63;2.58;;;;;;;;;;6180407;28;20456;-70
2022/06/22 18:05:31;;;;;;;5.57;3.65;;;;;;;;;;6196132;28;20237;-70
2022/06/22 18:08:55;;;;;;;6.55;5.95;;;;;;;;;;6203445;28;20587;-70
2022/06/22 18:12:17;;;;;;;2.38;2.17;;;;;;;;;;6206623;28;20252;-70
2022/06/22 18:15:42;;;;;;;3.60;2.50;;;;;;;;;;6187211;28;20998;-74
2022/06/22 18:19:02;;;;;;;3.63;2.03;;;;;;;;;;6194374;28;20256;-74
2022/06/22 18:22:25;;;;;;;6.35;5.75;;;;;;;;;;6208977;28;20229;-73
2022/06/22 18:25:47;;;;;;;2.22;1.80;;;;;;;;;;6191826;28;20237;-70
2022/06/22 18:29:13;;;;;;;2.38;2.15;;;;;;;;;;6196830;28;20575;-70
2022/06/22 18:32:37;;;;;;;4.47;2.15;;;;;;;;;;6202524;28;20259;-69
2022/06/22 18:36:00;;;;;;;3.72;2.22;;;;;;;;;;6194942;28;20237;-70
2022/06/22 18:43:04;;;;;;;4.88;3.22;;;;;;;;;;6199655;28;20241;-69
2022/06/22 18:46:26;;;;;;;3.28;1.70;;;;;;;;;;6181300;28;20745;-68
2022/06/22 18:49:49;;;;;;;3.03;2.53;;;;;;;;;;6200421;28;20647;-66
2022/06/22 18:53:12;;;;;;;4.25;2.50;;;;;;;;;;6199766;28;20811;-66
2022/06/22 18:56:42;;;;;;;2.53;2.33;;;;;;;;;;6198682;28;20236;-65
2022/06/22 19:00:04;;;;;;;3.85;2.83;;;;;;;;;;6188751;28;20232;-69
2022/06/22 19:03:27;;;;;;;2.42;2.22;;;;;;;;;;6194531;28;20237;-71
2022/06/22 19:06:50;;;;;;;2.88;2.67;;;;;;;;;;6199676;28;20304;-72
2022/06/22 19:10:17;;;;;;;3.42;2.55;;;;;;;;;;6189255;28;20323;-70
2022/06/22 19:13:40;;;;;;;3.05;2.65;;;;;;;;;;6181856;28;20240;-72
2022/06/22 19:17:04;;;;;;;3.92;2.65;;;;;;;;;;6171774;28;20241;-71
2022/06/22 19:20:32;;;;;;;2.95;2.22;;;;;;;;;;6168478;28;20233;-69
2022/06/22 19:24:03;;;;;;;3.08;2.78;;;;;;;;;;6177418;28;20240;-69
2022/06/22 19:27:30;;;;;;;3.05;2.75;;;;;;;;;;6188773;28;20228;-69
2022/06/22 19:30:55;;;;;;;2.85;2.63;;;;;;;;;;6182667;28;20776;-69
2022/06/22 19:34:25;;;;;;;2.75;2.45;;;;;;;;;;6191189;28;20238;-69
2022/06/22 19:37:48;;;;;;;3.47;3.17;;;;;;;;;;6191659;28;20253;-69
2022/06/22 19:41:16;;;;;;;3.33;2.65;;;;;;;;;;6195635;28;21041;-68
2022/06/22 19:44:54;;;;;;;11.45;2.47;;;;;;;;;;6205296;28;20326;-69
2022/06/22 19:48:20;;;;;;;2.65;2.45;;;;;;;;;;6203459;28;20229;-70
2022/06/22 19:51:46;;;;;;;3.47;2.30;;;;;;;;;;6200013;28;20241;-69
2022/06/22 19:55:09;;;;;;;2.85;2.65;;;;;;;;;;6206287;28;20311;-69
2022/06/22 19:58:31;;;;;;;3.38;2.58;;;;;;;;;;6200833;28;20614;-69
2022/06/22 20:01:54;;;;;;;5.75;3.47;;;;;;;;;;6203072;28;20550;-68
2022/06/22 20:05:17;;;;;;;2.92;2.33;;;;;;;;;;6211370;28;20229;-69
2022/06/22 20:08:42;;;;;;;2.97;2.53;;;;;;;;;;6198154;28;20241;-70
2022/06/22 20:12:07;;;;;;;2.85;2.50;;;;;;;;;;6204123;28;20261;-69
2022/06/22 20:15:34;;;;;;;6.47;3.40;;;;;;;;;;6209216;28;20236;-71
2022/06/22 20:18:55;;;;;;;3.35;2.63;;;;;;;;;;6203424;28;20234;-69
2022/06/22 20:22:20;;;;;;;3.72;2.63;;;;;;;;;;6208890;28;20232;-69
2022/06/22 20:25:45;;;;;;;2.60;2.40;;;;;;;;;;6198502;28;20590;-69
2022/06/22 20:29:12;;;;;;;1.92;1.83;;;;;;;;;;6198175;28;20248;-70
2022/06/22 20:32:39;;;;;;;3.75;3.00;;;;;;;;;;6198859;28;20233;-68
2022/06/22 20:36:04;;;;;;;3.97;3.55;;;;;;;;;;6198681;28;20252;-69
2022/06/22 20:39:24;;;;;;;2.42;1.67;;;;;;;;;;6200058;28;20271;-69
2022/06/22 20:42:56;;;;;;;2.28;2.17;;;;;;;;;;6196148;28;20233;-70
2022/06/22 20:46:20;;;;;;;3.60;3.30;;;;;;;;;;6195183;28;20336;-70
2022/06/22 20:49:52;;;;;;;3.47;3.17;;;;;;;;;;6191475;28;20588;-69
2022/06/22 20:53:16;;;;;;;5.40;2.92;;;;;;;;;;6199662;28;20595;-69
2022/06/22 20:56:39;;;;;;;3.17;2.83;;;;;;;;;;6203492;28;20241;-69
2022/06/22 21:00:02;;;;;;;3.40;3.10;;;;;;;;;;6212229;28;20229;-69
2022/06/22 21:03:36;;;;;;;3.42;2.78;;;;;;;;;;6210605;28;20225;-68
2022/06/22 21:06:58;;;;;;;2.42;2.22;;;;;;;;;;6201971;28;21070;-69
2022/06/22 21:10:23;;;;;;;4.18;3.58;;;;;;;;;;6208957;28;20262;-69
2022/06/22 21:13:48;;;;;;;3.78;2.33;;;;;;;;;;6211406;28;20230;-68
2022/06/22 21:17:25;;;;;;;2.70;2.20;;;;;;;;;;6210131;28;20808;-69